createdAt,value
2019-02-07T00:01:00.336Z,1012.5
2019-02-07T00:06:00.497Z,1012.3
2019-02-07T00:11:00.407Z,1012.2
2019-02-07T00:16:00.451Z,1012
2019-02-07T00:21:00.467Z,1011.9
2019-02-07T00:26:00.568Z,1011.7
2019-02-07T00:31:00.368Z,1011.6
2019-02-07T00:36:00.417Z,1011.5
2019-02-07T00:41:00.290Z,1011.3
2019-02-07T00:46:00.270Z,1011.2
2019-02-07T00:51:00.472Z,1011.1
2019-02-07T00:56:00.230Z,1011
2019-02-07T01:01:00.499Z,1010.9
2019-02-07T01:06:00.380Z,1010.8
2019-02-07T01:11:00.341Z,1010.7
2019-02-07T01:16:00.164Z,1010.5
2019-02-07T01:21:00.301Z,1010.4
2019-02-07T01:26:00.241Z,1010.3
2019-02-07T01:31:00.227Z,1010.1
2019-02-07T01:36:00.061Z,1010
2019-02-07T01:41:00.293Z,1010
2019-02-07T01:46:00.224Z,1009.8
2019-02-07T01:51:00.297Z,1009.7
2019-02-07T01:56:00.171Z,1009.6
2019-02-07T02:01:00.369Z,1009.6
2019-02-07T02:06:00.105Z,1009.5
2019-02-07T02:11:00.307Z,1009.4
2019-02-07T02:16:00.261Z,1009.3
2019-02-07T02:21:00.159Z,1009.1
2019-02-07T02:26:00.116Z,1008.9
2019-02-07T02:31:00.094Z,1008.8
2019-02-07T02:36:00.267Z,1008.7
2019-02-07T02:41:00.082Z,1008.6
2019-02-07T02:46:00.284Z,1008.4
2019-02-07T02:50:59.968Z,1008.2
2019-02-07T02:56:00.041Z,1008.2
2019-02-07T03:01:00.163Z,1008.1
2019-02-07T03:06:00.106Z,1007.9
2019-02-07T03:10:59.923Z,1007.8
2019-02-07T03:16:00.054Z,1007.7
2019-02-07T03:21:00.171Z,1007.6
2019-02-07T03:25:59.976Z,1007.5
2019-02-07T03:31:00.257Z,1007.4
2019-02-07T03:36:00.018Z,1007.3
2019-02-07T03:41:00.219Z,1007.2
2019-02-07T03:46:02.838Z,1007
2019-02-07T03:51:00.148Z,1006.9
2019-02-07T03:57:43.341Z,1006.8
2019-02-07T04:01:00.148Z,1006.8
2019-02-07T04:06:00.729Z,1006.6
2019-02-07T04:11:00.199Z,1006.6
2019-02-07T04:16:00.191Z,1006.5
2019-02-07T04:20:59.928Z,1006.5
2019-02-07T04:25:59.941Z,1006.3
2019-02-07T04:31:00.018Z,1006.3
2019-02-07T04:35:59.966Z,1006.2
2019-02-07T04:41:00.067Z,1006.2
2019-02-07T04:46:00.125Z,1006.2
2019-02-07T04:50:59.904Z,1006.1
2019-02-07T04:56:10.900Z,1006.1
2019-02-07T05:01:00.239Z,1006
2019-02-07T05:05:59.787Z,1005.9
2019-02-07T05:10:59.950Z,1005.8
2019-02-07T05:15:59.862Z,1005.8
2019-02-07T05:20:59.807Z,1005.8
2019-02-07T05:25:59.910Z,1005.5
2019-02-07T05:30:59.771Z,1005.7
2019-02-07T05:35:59.962Z,1005.6
2019-02-07T05:40:59.782Z,1005.6
2019-02-07T05:45:59.985Z,1005.4
2019-02-07T05:50:59.798Z,1005.4
2019-02-07T05:55:59.811Z,1005.4
2019-02-07T06:00:59.710Z,1005.2
2019-02-07T06:05:59.893Z,1005.2
2019-02-07T06:10:59.856Z,1005.2
2019-02-07T06:15:59.699Z,1005.2
2019-02-07T06:20:59.753Z,1005.4
2019-02-07T06:25:59.698Z,1005.5
2019-02-07T06:30:59.779Z,1005.8
2019-02-07T06:35:59.850Z,1005.8
2019-02-07T06:40:59.948Z,1005.7
2019-02-07T06:45:59.528Z,1005.8
2019-02-07T06:50:59.794Z,1005.7
2019-02-07T06:55:59.788Z,1005.9
2019-02-07T07:00:59.799Z,1005.9
2019-02-07T07:05:59.668Z,1005.9
2019-02-07T07:10:59.925Z,1005.9
2019-02-07T07:15:59.721Z,1006
2019-02-07T07:20:59.721Z,1006
2019-02-07T07:26:09.365Z,1006
2019-02-07T07:30:59.810Z,1006.2
2019-02-07T07:35:59.646Z,1006.3
2019-02-07T07:40:59.737Z,1006.2
2019-02-07T07:45:59.541Z,1006.2
2019-02-07T07:50:59.754Z,1006.2
2019-02-07T07:55:59.665Z,1006.2
2019-02-07T08:00:59.617Z,1006.1
2019-02-07T08:05:59.631Z,1006.3
2019-02-07T08:10:59.622Z,1006.5
2019-02-07T08:15:59.504Z,1006.3
2019-02-07T08:20:59.499Z,1006.4
2019-02-07T08:25:59.657Z,1006.4
2019-02-07T08:30:59.636Z,1006.6
2019-02-07T08:35:59.482Z,1006.6
2019-02-07T08:40:59.667Z,1006.8
2019-02-07T08:45:59.658Z,1006.6
2019-02-07T08:50:59.632Z,1006.7
2019-02-07T08:55:59.660Z,1006.7
2019-02-07T09:00:59.598Z,1006.6
2019-02-07T09:05:59.351Z,1006.7
2019-02-07T09:10:59.532Z,1006.7
2019-02-07T09:15:59.712Z,1006.7
2019-02-07T09:20:59.438Z,1006.6
2019-02-07T09:25:59.658Z,1006.7
2019-02-07T09:31:00.789Z,1006.7
2019-02-07T09:36:05.372Z,1006.7
2019-02-07T09:40:59.309Z,1006.7
2019-02-07T09:45:59.520Z,1006.6
2019-02-07T09:50:59.337Z,1006.6
2019-02-07T09:55:59.355Z,1006.6
2019-02-07T10:00:59.556Z,1006.6
2019-02-07T10:05:59.438Z,1006.6
2019-02-07T10:10:59.601Z,1006.4
2019-02-07T10:15:59.427Z,1006.5
2019-02-07T10:20:59.333Z,1006.5
2019-02-07T10:25:59.301Z,1006.4
2019-02-07T10:30:59.402Z,1006.5
2019-02-07T10:35:59.529Z,1006.5
2019-02-07T10:40:59.461Z,1006.6
2019-02-07T10:45:59.433Z,1006.5
2019-02-07T10:50:59.367Z,1006.5
2019-02-07T10:55:59.398Z,1006.5
2019-02-07T11:00:59.349Z,1006.4
2019-02-07T11:05:59.423Z,1006.5
2019-02-07T11:10:59.420Z,1006.6
2019-02-07T11:15:59.383Z,1006.6
2019-02-07T11:20:59.138Z,1006.6
2019-02-07T11:25:59.400Z,1006.6
2019-02-07T11:30:59.214Z,1006.6
2019-02-07T11:35:59.168Z,1006.5
2019-02-07T11:40:59.470Z,1006.5
2019-02-07T11:45:59.505Z,1006.5
2019-02-07T11:50:59.279Z,1006.3
2019-02-07T11:55:59.369Z,1006.4
2019-02-07T12:00:59.321Z,1006.4
2019-02-07T12:05:59.391Z,1006.3
2019-02-07T12:10:59.204Z,1006.4
2019-02-07T12:15:59.373Z,1006.4
2019-02-07T12:20:59.399Z,1006.4
2019-02-07T12:25:59.312Z,1006.4
2019-02-07T12:30:59.248Z,1006.3
2019-02-07T12:35:59.135Z,1006.4
2019-02-07T12:40:59.327Z,1006.4
2019-02-07T12:45:59.142Z,1006.3
2019-02-07T12:50:59.336Z,1006.3
2019-02-07T12:55:59.353Z,1006.2
2019-02-07T13:00:59.092Z,1006.1
2019-02-07T13:05:59.197Z,1006.1
2019-02-07T13:10:59.226Z,1006.1
2019-02-07T13:15:59.389Z,1006.2
2019-02-07T13:20:59.273Z,1006.3
2019-02-07T13:25:59.365Z,1006.3
2019-02-07T13:30:59.221Z,1006.2
2019-02-07T13:35:59.390Z,1006.4
2019-02-07T13:40:59.189Z,1006.4
2019-02-07T13:45:59.147Z,1006.2
2019-02-07T13:50:59.158Z,1006.3
2019-02-07T13:55:59.060Z,1006.1
2019-02-07T14:00:58.989Z,1006.4
2019-02-07T14:05:59.108Z,1006.5
2019-02-07T14:10:58.979Z,1006.3
2019-02-07T14:15:59.042Z,1006.4
2019-02-07T14:20:59.145Z,1006.5
2019-02-07T14:25:59.097Z,1006.6
2019-02-07T14:30:58.989Z,1006.7
2019-02-07T14:35:59.112Z,1006.5
2019-02-07T14:40:59.059Z,1006.8
2019-02-07T14:45:59.045Z,1006.8
2019-02-07T14:50:59.140Z,1006.9
2019-02-07T14:55:58.960Z,1007.1
2019-02-07T15:00:59.205Z,1007
2019-02-07T15:05:59.201Z,1007
2019-02-07T15:10:59.099Z,1007
2019-02-07T15:15:59.129Z,1007
2019-02-07T15:20:58.982Z,1007.1
2019-02-07T15:25:59.169Z,1007.2
2019-02-07T15:30:59.157Z,1007.1
2019-02-07T15:35:58.861Z,1007.2
2019-02-07T15:40:58.949Z,1007.4
2019-02-07T15:45:58.848Z,1007.4
2019-02-07T15:50:58.834Z,1007.4
2019-02-07T15:55:58.938Z,1007.4
2019-02-07T16:00:59.057Z,1007.4
2019-02-07T16:05:59.212Z,1007.6
2019-02-07T16:10:59.225Z,1007.5
2019-02-07T16:15:59.558Z,1007.6
2019-02-07T16:20:59.111Z,1007.7
2019-02-07T16:25:59.092Z,1007.7
2019-02-07T16:30:58.942Z,1007.6
2019-02-07T16:35:59.180Z,1007.8
2019-02-07T16:40:58.867Z,1007.8
2019-02-07T16:45:58.738Z,1007.9
2019-02-07T16:51:00.521Z,1007.9
2019-02-07T16:55:59.003Z,1007.9
2019-02-07T17:00:58.829Z,1008
2019-02-07T17:05:58.841Z,1008
2019-02-07T17:10:58.906Z,1008.1
2019-02-07T17:15:58.933Z,1008.3
2019-02-07T17:20:58.793Z,1008.3
2019-02-07T17:25:58.927Z,1008.4
2019-02-07T17:30:58.880Z,1008.5
2019-02-07T17:35:58.640Z,1008.6
2019-02-07T17:40:58.872Z,1008.6
2019-02-07T17:45:59.052Z,1008.7
2019-02-07T17:50:58.918Z,1008.8
2019-02-07T17:55:58.906Z,1008.9
2019-02-07T18:00:58.761Z,1009
2019-02-07T18:05:58.830Z,1009
2019-02-07T18:10:58.831Z,1009
2019-02-07T18:15:58.961Z,1009.1
2019-02-07T18:20:58.699Z,1009.2
2019-02-07T18:25:58.691Z,1009.3
2019-02-07T18:30:58.891Z,1009.3
2019-02-07T18:35:58.596Z,1009.4
2019-02-07T18:40:58.991Z,1009.5
2019-02-07T18:45:58.737Z,1009.4
2019-02-07T18:50:58.914Z,1009.5
2019-02-07T18:55:58.900Z,1009.5
2019-02-07T19:00:58.837Z,1009.6
2019-02-07T19:05:58.952Z,1009.5
2019-02-07T19:10:58.627Z,1009.6
2019-02-07T19:15:58.856Z,1009.6
2019-02-07T19:20:58.623Z,1009.6
2019-02-07T19:25:58.717Z,1009.7
2019-02-07T19:30:58.736Z,1009.7
2019-02-07T19:35:58.650Z,1009.8
2019-02-07T19:40:58.593Z,1009.9
2019-02-07T19:45:58.850Z,1009.9
2019-02-07T19:50:58.852Z,1009.9
2019-02-07T19:55:58.677Z,1010
2019-02-07T20:00:58.899Z,1010
2019-02-07T20:05:58.534Z,1010
2019-02-07T20:10:58.527Z,1010.1
2019-02-07T20:15:58.513Z,1010.1
2019-02-07T20:20:58.673Z,1010.1
2019-02-07T20:25:58.506Z,1010.1
2019-02-07T20:30:58.635Z,1010.3
2019-02-07T20:35:58.540Z,1010.2
2019-02-07T20:40:58.625Z,1010.3
2019-02-07T20:45:58.632Z,1010.3
2019-02-07T20:50:58.706Z,1010.4
2019-02-07T20:55:58.684Z,1010.5
2019-02-07T21:00:58.512Z,1010.5
2019-02-07T21:05:58.509Z,1010.6
2019-02-07T21:10:58.493Z,1010.6
2019-02-07T21:15:58.869Z,1010.6
2019-02-07T21:20:58.555Z,1010.7
2019-02-07T21:25:58.420Z,1010.7
2019-02-07T21:30:58.419Z,1010.8
2019-02-07T21:35:58.662Z,1010.8
2019-02-07T21:40:58.515Z,1010.9
2019-02-07T21:45:58.477Z,1011
2019-02-07T21:50:58.646Z,1011.1
2019-02-07T21:55:58.733Z,1011.1
2019-02-07T22:00:58.449Z,1011.1
2019-02-07T22:05:58.684Z,1011.2
2019-02-07T22:10:58.681Z,1011.2
2019-02-07T22:15:58.633Z,1011.3
2019-02-07T22:22:34.814Z,1011.3
2019-02-07T22:25:58.617Z,1011.4
2019-02-07T22:30:58.630Z,1011.4
2019-02-07T22:35:58.535Z,1011.4
2019-02-07T22:40:58.755Z,1011.5
2019-02-07T22:45:58.478Z,1011.5
2019-02-07T22:50:58.731Z,1011.5
2019-02-07T22:55:58.678Z,1011.5
2019-02-07T23:00:58.313Z,1011.5
2019-02-07T23:05:58.456Z,1011.6
2019-02-07T23:10:58.551Z,1011.5
2019-02-07T23:15:58.398Z,1011.5
2019-02-07T23:20:58.370Z,1011.6
2019-02-07T23:25:58.217Z,1011.5
2019-02-07T23:30:58.228Z,1011.5
2019-02-07T23:35:58.356Z,1011.5
2019-02-07T23:40:58.415Z,1011.5
2019-02-07T23:45:58.357Z,1011.6
2019-02-07T23:50:58.287Z,1011.5
2019-02-07T23:55:58.347Z,1011.6
